sensor_id;sensor_type;location;lat;lon;timestamp;temperature;humidity
1103;DHT22;538;42.654;23.376;2022-11-18T00:01:30;10.20;94.80
1103;DHT22;538;42.654;23.376;2022-11-18T00:03:57;10.20;95.70
1103;DHT22;538;42.654;23.376;2022-11-18T00:06:26;10.10;97.30
1103;DHT22;538;42.654;23.376;2022-11-18T00:08:54;10.30;97.30
1103;DHT22;538;42.654;23.376;2022-11-18T00:11:23;10.10;97.30
1103;DHT22;538;42.654;23.376;2022-11-18T00:14:13;10.10;96.70
1103;DHT22;538;42.654;23.376;2022-11-18T00:16:49;10.40;96.90
1103;DHT22;538;42.654;23.376;2022-11-18T00:19:17;10.20;96.40
1103;DHT22;538;42.654;23.376;2022-11-18T00:21:44;10.30;96.60
1103;DHT22;538;42.654;23.376;2022-11-18T00:24:11;10.30;95.20
1103;DHT22;538;42.654;23.376;2022-11-18T00:26:38;10.60;93.90
1103;DHT22;538;42.654;23.376;2022-11-18T00:29:05;10.20;94.20
1103;DHT22;538;42.654;23.376;2022-11-18T00:31:34;10.30;94.60
1103;DHT22;538;42.654;23.376;2022-11-18T00:34:01;10.40;94.50
1103;DHT22;538;42.654;23.376;2022-11-18T00:36:29;10.20;94.80
1103;DHT22;538;42.654;23.376;2022-11-18T00:41:24;10.10;96.20
1103;DHT22;538;42.654;23.376;2022-11-18T00:44:11;10.10;97.00
1103;DHT22;538;42.654;23.376;2022-11-18T00:46:38;10.10;96.90
1103;DHT22;538;42.654;23.376;2022-11-18T00:51:33;10.10;94.20
1103;DHT22;538;42.654;23.376;2022-11-18T00:54:00;10.10;94.60
1103;DHT22;538;42.654;23.376;2022-11-18T00:56:28;10.10;93.80
1103;DHT22;538;42.654;23.376;2022-11-18T00:58:55;10.10;91.70
1103;DHT22;538;42.654;23.376;2022-11-18T01:03:51;10.00;92.70
1103;DHT22;538;42.654;23.376;2022-11-18T01:06:19;9.90;92.60
1103;DHT22;538;42.654;23.376;2022-11-18T01:13:58;10.00;91.40
1103;DHT22;538;42.654;23.376;2022-11-18T01:16:26;9.60;92.60
1103;DHT22;538;42.654;23.376;2022-11-18T01:18:55;9.60;94.20
1103;DHT22;538;42.654;23.376;2022-11-18T01:21:23;9.50;94.90
1103;DHT22;538;42.654;23.376;2022-11-18T01:23:50;9.60;95.50
1103;DHT22;538;42.654;23.376;2022-11-18T01:26:18;9.60;97.00
1103;DHT22;538;42.654;23.376;2022-11-18T01:28:45;9.50;96.30
1103;DHT22;538;42.654;23.376;2022-11-18T01:31:14;9.30;96.10
1103;DHT22;538;42.654;23.376;2022-11-18T01:33:42;9.40;97.30
1103;DHT22;538;42.654;23.376;2022-11-18T01:36:19;9.40;96.90
1103;DHT22;538;42.654;23.376;2022-11-18T01:41:14;9.10;95.90
1103;DHT22;538;42.654;23.376;2022-11-18T01:43:50;9.20;95.10
1103;DHT22;538;42.654;23.376;2022-11-18T01:46:18;9.10;95.20
1103;DHT22;538;42.654;23.376;2022-11-18T01:48:49;9.00;95.10
1103;DHT22;538;42.654;23.376;2022-11-18T01:51:22;8.90;96.30
1103;DHT22;538;42.654;23.376;2022-11-18T01:53:58;9.00;96.80
1103;DHT22;538;42.654;23.376;2022-11-18T01:56:32;8.80;97.10
1103;DHT22;538;42.654;23.376;2022-11-18T01:59:03;8.70;97.00
1103;DHT22;538;42.654;23.376;2022-11-18T02:01:32;8.70;97.20
1103;DHT22;538;42.654;23.376;2022-11-18T02:03:59;8.60;96.80
1103;DHT22;538;42.654;23.376;2022-11-18T02:06:27;8.50;96.80
1103;DHT22;538;42.654;23.376;2022-11-18T02:08:55;8.40;97.70
1103;DHT22;538;42.654;23.376;2022-11-18T02:14:08;8.40;99.60
1103;DHT22;538;42.654;23.376;2022-11-18T02:16:55;8.30;99.90
1103;DHT22;538;42.654;23.376;2022-11-18T02:23:00;8.30;99.90
1103;DHT22;538;42.654;23.376;2022-11-18T02:25:46;8.40;99.90
1103;DHT22;538;42.654;23.376;2022-11-18T02:28:35;8.20;99.90
1103;DHT22;538;42.654;23.376;2022-11-18T02:31:10;8.40;99.90
1103;DHT22;538;42.654;23.376;2022-11-18T02:33:47;8.40;99.90
1103;DHT22;538;42.654;23.376;2022-11-18T02:36:18;8.30;99.90
1103;DHT22;538;42.654;23.376;2022-11-18T02:38:51;8.30;99.90
1103;DHT22;538;42.654;23.376;2022-11-18T02:41:24;8.40;99.90
1103;DHT22;538;42.654;23.376;2022-11-18T02:43:54;8.20;99.90
1103;DHT22;538;42.654;23.376;2022-11-18T02:46:27;8.40;99.90
1103;DHT22;538;42.654;23.376;2022-11-18T02:48:56;8.50;99.90
1103;DHT22;538;42.654;23.376;2022-11-18T02:51:25;8.30;99.90
1103;DHT22;538;42.654;23.376;2022-11-18T02:53:55;8.30;99.90
1103;DHT22;538;42.654;23.376;2022-11-18T02:56:24;8.40;99.90
1103;DHT22;538;42.654;23.376;2022-11-18T02:58:52;8.20;99.90
1103;DHT22;538;42.654;23.376;2022-11-18T03:01:23;8.50;99.90
1103;DHT22;538;42.654;23.376;2022-11-18T03:03:52;8.20;99.90
1103;DHT22;538;42.654;23.376;2022-11-18T03:06:28;8.20;99.90
1103;DHT22;538;42.654;23.376;2022-11-18T03:09:04;8.00;99.90
1103;DHT22;538;42.654;23.376;2022-11-18T03:11:39;8.20;99.90
1103;DHT22;538;42.654;23.376;2022-11-18T03:14:18;8.00;99.90
1103;DHT22;538;42.654;23.376;2022-11-18T03:16:57;8.00;99.90
1103;DHT22;538;42.654;23.376;2022-11-18T03:19:31;8.10;99.90
1103;DHT22;538;42.654;23.376;2022-11-18T03:22:07;8.00;99.90
1103;DHT22;538;42.654;23.376;2022-11-18T03:24:39;8.30;99.90
1103;DHT22;538;42.654;23.376;2022-11-18T03:27:11;8.40;99.90
1103;DHT22;538;42.654;23.376;2022-11-18T03:29:45;8.00;99.90
1103;DHT22;538;42.654;23.376;2022-11-18T03:32:18;8.20;99.90
1103;DHT22;538;42.654;23.376;2022-11-18T03:34:48;8.10;99.90
1103;DHT22;538;42.654;23.376;2022-11-18T03:37:17;8.40;99.90
1103;DHT22;538;42.654;23.376;2022-11-18T03:39:48;8.20;99.90
1103;DHT22;538;42.654;23.376;2022-11-18T03:42:22;8.50;99.90
1103;DHT22;538;42.654;23.376;2022-11-18T03:44:53;8.30;99.90
1103;DHT22;538;42.654;23.376;2022-11-18T03:47:25;8.50;99.90
1103;DHT22;538;42.654;23.376;2022-11-18T03:49:57;8.50;99.90
1103;DHT22;538;42.654;23.376;2022-11-18T03:52:28;8.50;99.90
1103;DHT22;538;42.654;23.376;2022-11-18T03:55:00;8.60;99.90
1103;DHT22;538;42.654;23.376;2022-11-18T03:57:36;8.70;99.90
1103;DHT22;538;42.654;23.376;2022-11-18T04:00:07;8.60;99.90
1103;DHT22;538;42.654;23.376;2022-11-18T04:02:37;8.50;99.90
1103;DHT22;538;42.654;23.376;2022-11-18T04:05:07;8.60;99.90
1103;DHT22;538;42.654;23.376;2022-11-18T04:07:38;8.40;99.90
1103;DHT22;538;42.654;23.376;2022-11-18T04:10:10;8.60;99.90
1103;DHT22;538;42.654;23.376;2022-11-18T04:12:42;8.70;99.90
1103;DHT22;538;42.654;23.376;2022-11-18T04:15:10;8.40;99.90
1103;DHT22;538;42.654;23.376;2022-11-18T04:17:40;8.60;99.90
1103;DHT22;538;42.654;23.376;2022-11-18T04:20:11;8.40;99.90
1103;DHT22;538;42.654;23.376;2022-11-18T04:22:39;8.50;99.90
1103;DHT22;538;42.654;23.376;2022-11-18T04:25:06;8.30;99.90
1103;DHT22;538;42.654;23.376;2022-11-18T04:27:33;8.40;99.90
1103;DHT22;538;42.654;23.376;2022-11-18T04:30:00;8.40;99.90
1103;DHT22;538;42.654;23.376;2022-11-18T04:32:28;8.30;99.90
1103;DHT22;538;42.654;23.376;2022-11-18T04:34:56;8.40;99.90
1103;DHT22;538;42.654;23.376;2022-11-18T04:37:23;8.30;99.90
1103;DHT22;538;42.654;23.376;2022-11-18T04:39:50;8.30;99.90
1103;DHT22;538;42.654;23.376;2022-11-18T04:42:21;8.00;99.90
1103;DHT22;538;42.654;23.376;2022-11-18T04:44:48;7.70;99.90
1103;DHT22;538;42.654;23.376;2022-11-18T04:47:15;7.80;99.90
1103;DHT22;538;42.654;23.376;2022-11-18T04:49:42;7.90;99.90
1103;DHT22;538;42.654;23.376;2022-11-18T04:52:11;7.90;99.90
1103;DHT22;538;42.654;23.376;2022-11-18T04:54:38;7.90;99.90
1103;DHT22;538;42.654;23.376;2022-11-18T04:57:05;7.80;99.90
1103;DHT22;538;42.654;23.376;2022-11-18T04:59:35;7.80;99.90
1103;DHT22;538;42.654;23.376;2022-11-18T05:02:04;8.00;99.90
1103;DHT22;538;42.654;23.376;2022-11-18T05:04:33;8.10;99.90
1103;DHT22;538;42.654;23.376;2022-11-18T05:07:02;7.90;99.90
1103;DHT22;538;42.654;23.376;2022-11-18T05:09:31;8.00;99.90
1103;DHT22;538;42.654;23.376;2022-11-18T05:11:58;8.10;99.90
1103;DHT22;538;42.654;23.376;2022-11-18T05:17:10;8.10;99.90
1103;DHT22;538;42.654;23.376;2022-11-18T05:19:37;8.30;99.90
1103;DHT22;538;42.654;23.376;2022-11-18T05:22:05;8.50;99.90
1103;DHT22;538;42.654;23.376;2022-11-18T05:24:34;8.30;99.90
1103;DHT22;538;42.654;23.376;2022-11-18T05:34:24;8.20;99.90
1103;DHT22;538;42.654;23.376;2022-11-18T05:41:47;8.30;99.90
1103;DHT22;538;42.654;23.376;2022-11-18T05:44:32;8.10;99.90
1103;DHT22;538;42.654;23.376;2022-11-18T05:46:59;8.10;99.90
1103;DHT22;538;42.654;23.376;2022-11-18T05:49:27;8.10;99.90
1103;DHT22;538;42.654;23.376;2022-11-18T05:51:56;8.20;99.90
1103;DHT22;538;42.654;23.376;2022-11-18T05:54:24;8.10;99.90
1103;DHT22;538;42.654;23.376;2022-11-18T05:56:54;8.40;99.90
1103;DHT22;538;42.654;23.376;2022-11-18T06:01:52;8.40;99.90
1103;DHT22;538;42.654;23.376;2022-11-18T06:04:24;8.20;99.90
1103;DHT22;538;42.654;23.376;2022-11-18T06:06:55;8.80;99.90
1103;DHT22;538;42.654;23.376;2022-11-18T06:09:27;8.70;99.90
1103;DHT22;538;42.654;23.376;2022-11-18T06:11:59;8.70;99.90
1103;DHT22;538;42.654;23.376;2022-11-18T06:14:29;8.60;99.90
1103;DHT22;538;42.654;23.376;2022-11-18T06:17:00;8.50;99.90
1103;DHT22;538;42.654;23.376;2022-11-18T06:19:30;8.40;99.90
1103;DHT22;538;42.654;23.376;2022-11-18T06:21:58;8.70;99.90
1103;DHT22;538;42.654;23.376;2022-11-18T06:24:28;8.60;99.90
1103;DHT22;538;42.654;23.376;2022-11-18T06:26:57;8.60;99.90
1103;DHT22;538;42.654;23.376;2022-11-18T06:29:26;8.60;99.90
1103;DHT22;538;42.654;23.376;2022-11-18T06:31:56;8.80;99.90
1103;DHT22;538;42.654;23.376;2022-11-18T06:34:23;8.60;99.90
1103;DHT22;538;42.654;23.376;2022-11-18T06:36:53;8.90;99.90
1103;DHT22;538;42.654;23.376;2022-11-18T06:39:20;8.80;99.90
1103;DHT22;538;42.654;23.376;2022-11-18T06:44:17;9.20;99.90
1103;DHT22;538;42.654;23.376;2022-11-18T06:49:23;9.30;99.90
1103;DHT22;538;42.654;23.376;2022-11-18T06:51:51;9.30;99.90
1103;DHT22;538;42.654;23.376;2022-11-18T06:54:19;9.50;99.90
1103;DHT22;538;42.654;23.376;2022-11-18T06:56:46;9.30;99.90
1103;DHT22;538;42.654;23.376;2022-11-18T06:59:13;9.10;99.90
1103;DHT22;538;42.654;23.376;2022-11-18T07:01:48;9.40;99.90
1103;DHT22;538;42.654;23.376;2022-11-18T07:06:45;9.30;99.90
1103;DHT22;538;42.654;23.376;2022-11-18T07:09:12;9.50;99.90
1103;DHT22;538;42.654;23.376;2022-11-18T07:11:39;9.40;99.90
1103;DHT22;538;42.654;23.376;2022-11-18T07:14:06;9.30;99.90
1103;DHT22;538;42.654;23.376;2022-11-18T07:16:34;9.60;99.90
1103;DHT22;538;42.654;23.376;2022-11-18T07:19:12;9.10;99.90
1103;DHT22;538;42.654;23.376;2022-11-18T07:21:43;9.40;99.90
1103;DHT22;538;42.654;23.376;2022-11-18T07:24:13;9.50;99.90
1103;DHT22;538;42.654;23.376;2022-11-18T07:26:43;9.70;99.90
1103;DHT22;538;42.654;23.376;2022-11-18T07:29:10;9.60;99.90
1103;DHT22;538;42.654;23.376;2022-11-18T07:31:40;9.90;99.90
1103;DHT22;538;42.654;23.376;2022-11-18T07:34:09;10.10;99.90
1103;DHT22;538;42.654;23.376;2022-11-18T07:36:36;10.30;99.90
1103;DHT22;538;42.654;23.376;2022-11-18T07:39:04;10.10;99.90
1103;DHT22;538;42.654;23.376;2022-11-18T07:41:34;10.30;99.90
1103;DHT22;538;42.654;23.376;2022-11-18T07:44:03;10.30;99.90
1103;DHT22;538;42.654;23.376;2022-11-18T07:46:32;10.40;99.90
1103;DHT22;538;42.654;23.376;2022-11-18T07:49:01;10.60;99.90
1103;DHT22;538;42.654;23.376;2022-11-18T07:51:33;10.70;99.90
1103;DHT22;538;42.654;23.376;2022-11-18T07:54:04;10.50;99.90
1103;DHT22;538;42.654;23.376;2022-11-18T07:56:31;10.30;99.90
1103;DHT22;538;42.654;23.376;2022-11-18T07:58:59;10.50;99.90
1103;DHT22;538;42.654;23.376;2022-11-18T08:01:26;10.30;99.90
1103;DHT22;538;42.654;23.376;2022-11-18T08:06:22;10.50;99.90
1103;DHT22;538;42.654;23.376;2022-11-18T08:08:52;10.30;99.90
1103;DHT22;538;42.654;23.376;2022-11-18T08:16:15;10.00;99.90
1103;DHT22;538;42.654;23.376;2022-11-18T08:18:43;9.90;99.90
1103;DHT22;538;42.654;23.376;2022-11-18T08:21:11;10.30;99.90
1103;DHT22;538;42.654;23.376;2022-11-18T08:23:38;10.50;99.90
1103;DHT22;538;42.654;23.376;2022-11-18T08:26:08;10.30;99.90
1103;DHT22;538;42.654;23.376;2022-11-18T08:28:36;10.40;99.90
1103;DHT22;538;42.654;23.376;2022-11-18T08:31:08;10.40;99.90
1103;DHT22;538;42.654;23.376;2022-11-18T08:33:36;10.40;99.90
1103;DHT22;538;42.654;23.376;2022-11-18T08:36:08;10.90;99.90
1103;DHT22;538;42.654;23.376;2022-11-18T08:38:36;11.10;99.90
1103;DHT22;538;42.654;23.376;2022-11-18T08:43:34;11.40;99.70
1103;DHT22;538;42.654;23.376;2022-11-18T08:46:01;11.40;98.80
1103;DHT22;538;42.654;23.376;2022-11-18T08:50:56;11.90;96.40
1103;DHT22;538;42.654;23.376;2022-11-18T08:53:24;11.40;94.80
1103;DHT22;538;42.654;23.376;2022-11-18T08:55:55;11.40;94.80
1103;DHT22;538;42.654;23.376;2022-11-18T08:58:25;11.40;95.80
1103;DHT22;538;42.654;23.376;2022-11-18T09:00:54;11.40;97.00
1103;DHT22;538;42.654;23.376;2022-11-18T09:03:22;11.30;97.30
1103;DHT22;538;42.654;23.376;2022-11-18T09:08:19;11.40;99.50
1103;DHT22;538;42.654;23.376;2022-11-18T09:10:51;11.40;99.10
1103;DHT22;538;42.654;23.376;2022-11-18T09:15:45;11.70;97.50
1103;DHT22;538;42.654;23.376;2022-11-18T09:18:16;11.60;95.80
1103;DHT22;538;42.654;23.376;2022-11-18T09:20:53;11.80;95.20
1103;DHT22;538;42.654;23.376;2022-11-18T09:23:20;11.80;95.10
1103;DHT22;538;42.654;23.376;2022-11-18T09:25:47;11.90;94.30
1103;DHT22;538;42.654;23.376;2022-11-18T09:28:14;11.40;93.30
1103;DHT22;538;42.654;23.376;2022-11-18T09:33:09;11.40;94.20
1103;DHT22;538;42.654;23.376;2022-11-18T09:35:42;11.10;94.80
1103;DHT22;538;42.654;23.376;2022-11-18T09:38:10;11.00;96.70
1103;DHT22;538;42.654;23.376;2022-11-18T09:40:44;10.90;97.60
1103;DHT22;538;42.654;23.376;2022-11-18T09:43:17;10.90;98.30
1103;DHT22;538;42.654;23.376;2022-11-18T09:45:50;10.80;99.00
1103;DHT22;538;42.654;23.376;2022-11-18T09:48:22;11.00;99.50
1103;DHT22;538;42.654;23.376;2022-11-18T09:51:13;11.00;99.90
1103;DHT22;538;42.654;23.376;2022-11-18T09:53:41;11.60;99.90
1103;DHT22;538;42.654;23.376;2022-11-18T09:56:14;12.60;99.90
1103;DHT22;538;42.654;23.376;2022-11-18T09:58:42;13.50;91.10
1103;DHT22;538;42.654;23.376;2022-11-18T10:01:17;14.60;72.70
1103;DHT22;538;42.654;23.376;2022-11-18T10:06:19;15.40;51.10
1103;DHT22;538;42.654;23.376;2022-11-18T10:08:58;15.40;44.40
1103;DHT22;538;42.654;23.376;2022-11-18T10:11:30;15.70;41.70
1103;DHT22;538;42.654;23.376;2022-11-18T10:14:06;15.40;40.50
1103;DHT22;538;42.654;23.376;2022-11-18T10:16:44;14.70;45.50
1103;DHT22;538;42.654;23.376;2022-11-18T10:19:25;14.90;46.40
1103;DHT22;538;42.654;23.376;2022-11-18T10:22:06;14.90;50.00
1103;DHT22;538;42.654;23.376;2022-11-18T10:24:40;15.40;45.30
1103;DHT22;538;42.654;23.376;2022-11-18T10:27:10;15.60;42.80
1103;DHT22;538;42.654;23.376;2022-11-18T10:32:06;17.20;36.70
1103;DHT22;538;42.654;23.376;2022-11-18T10:34:43;18.50;30.10
1103;DHT22;538;42.654;23.376;2022-11-18T10:37:22;18.80;24.60
1103;DHT22;538;42.654;23.376;2022-11-18T10:39:50;18.50;25.80
1103;DHT22;538;42.654;23.376;2022-11-18T10:42:22;18.60;26.40
1103;DHT22;538;42.654;23.376;2022-11-18T10:47:25;17.10;31.10
1103;DHT22;538;42.654;23.376;2022-11-18T10:49:54;17.00;33.00
1103;DHT22;538;42.654;23.376;2022-11-18T10:52:24;16.70;31.70
1103;DHT22;538;42.654;23.376;2022-11-18T10:55:19;16.30;32.60
1103;DHT22;538;42.654;23.376;2022-11-18T10:57:50;16.10;33.40
1103;DHT22;538;42.654;23.376;2022-11-18T11:00:47;15.70;37.50
1103;DHT22;538;42.654;23.376;2022-11-18T11:03:25;15.90;37.80
1103;DHT22;538;42.654;23.376;2022-11-18T11:06:19;16.30;37.20
1103;DHT22;538;42.654;23.376;2022-11-18T11:08:50;15.90;36.90
1103;DHT22;538;42.654;23.376;2022-11-18T11:11:25;16.30;36.30
1103;DHT22;538;42.654;23.376;2022-11-18T11:14:15;16.30;34.60
1103;DHT22;538;42.654;23.376;2022-11-18T11:16:52;16.60;32.20
1103;DHT22;538;42.654;23.376;2022-11-18T11:19:25;16.50;32.20
1103;DHT22;538;42.654;23.376;2022-11-18T11:24:25;15.70;34.10
1103;DHT22;538;42.654;23.376;2022-11-18T11:27:04;15.30;39.60
1103;DHT22;538;42.654;23.376;2022-11-18T11:30:04;15.20;42.30
1103;DHT22;538;42.654;23.376;2022-11-18T11:32:48;15.30;39.80
1103;DHT22;538;42.654;23.376;2022-11-18T11:35:22;14.80;43.30
1103;DHT22;538;42.654;23.376;2022-11-18T11:37:54;15.00;42.40
1103;DHT22;538;42.654;23.376;2022-11-18T11:40:30;14.60;43.50
1103;DHT22;538;42.654;23.376;2022-11-18T11:43:16;14.80;45.80
1103;DHT22;538;42.654;23.376;2022-11-18T11:46:03;14.70;49.80
1103;DHT22;538;42.654;23.376;2022-11-18T11:48:43;14.80;49.50
1103;DHT22;538;42.654;23.376;2022-11-18T11:51:17;14.60;46.80
1103;DHT22;538;42.654;23.376;2022-11-18T11:56:37;14.30;49.80
1103;DHT22;538;42.654;23.376;2022-11-18T11:59:15;14.40;50.30
1103;DHT22;538;42.654;23.376;2022-11-18T12:01:52;14.30;50.50
1103;DHT22;538;42.654;23.376;2022-11-18T12:04:37;14.40;53.70
1103;DHT22;538;42.654;23.376;2022-11-18T12:07:11;14.40;54.00
1103;DHT22;538;42.654;23.376;2022-11-18T12:09:51;14.40;53.80
1103;DHT22;538;42.654;23.376;2022-11-18T12:12:26;14.30;54.00
1103;DHT22;538;42.654;23.376;2022-11-18T12:15:16;14.10;52.60
1103;DHT22;538;42.654;23.376;2022-11-18T12:17:53;14.10;56.90
1103;DHT22;538;42.654;23.376;2022-11-18T12:20:37;14.20;57.50
1103;DHT22;538;42.654;23.376;2022-11-18T12:23:18;14.00;56.90
1103;DHT22;538;42.654;23.376;2022-11-18T12:25:58;14.30;58.60
1103;DHT22;538;42.654;23.376;2022-11-18T12:28:33;14.30;56.30
1103;DHT22;538;42.654;23.376;2022-11-18T12:31:29;14.60;53.90
1103;DHT22;538;42.654;23.376;2022-11-18T12:33:59;14.70;51.90
1103;DHT22;538;42.654;23.376;2022-11-18T12:36:29;14.60;52.80
1103;DHT22;538;42.654;23.376;2022-11-18T12:41:51;14.60;51.40
1103;DHT22;538;42.654;23.376;2022-11-18T12:44:38;14.30;51.10
1103;DHT22;538;42.654;23.376;2022-11-18T12:47:06;14.80;52.30
1103;DHT22;538;42.654;23.376;2022-11-18T12:52:48;14.60;50.60
1103;DHT22;538;42.654;23.376;2022-11-18T12:55:20;14.60;53.40
1103;DHT22;538;42.654;23.376;2022-11-18T12:57:48;14.80;52.30
1103;DHT22;538;42.654;23.376;2022-11-18T13:00:26;14.70;51.30
1103;DHT22;538;42.654;23.376;2022-11-18T13:02:56;14.60;51.00
1103;DHT22;538;42.654;23.376;2022-11-18T13:05:24;14.60;49.50
1103;DHT22;538;42.654;23.376;2022-11-18T13:07:56;14.70;48.00
1103;DHT22;538;42.654;23.376;2022-11-18T13:10:44;14.40;48.30
1103;DHT22;538;42.654;23.376;2022-11-18T13:13:23;14.90;49.00
1103;DHT22;538;42.654;23.376;2022-11-18T13:15:54;14.90;46.60
1103;DHT22;538;42.654;23.376;2022-11-18T13:18:49;15.10;44.80
1103;DHT22;538;42.654;23.376;2022-11-18T13:21:22;14.90;39.80
1103;DHT22;538;42.654;23.376;2022-11-18T13:24:10;14.90;42.50
1103;DHT22;538;42.654;23.376;2022-11-18T13:26:39;15.50;41.10
1103;DHT22;538;42.654;23.376;2022-11-18T13:29:31;14.80;37.10
1103;DHT22;538;42.654;23.376;2022-11-18T13:32:15;15.00;32.30
1103;DHT22;538;42.654;23.376;2022-11-18T13:34:47;15.30;27.60
1103;DHT22;538;42.654;23.376;2022-11-18T13:37:17;15.20;28.30
1103;DHT22;538;42.654;23.376;2022-11-18T13:39:45;15.50;28.80
1103;DHT22;538;42.654;23.376;2022-11-18T13:42:16;15.40;29.80
1103;DHT22;538;42.654;23.376;2022-11-18T13:44:50;15.50;26.00
1103;DHT22;538;42.654;23.376;2022-11-18T13:47:25;15.60;23.50
1103;DHT22;538;42.654;23.376;2022-11-18T13:50:11;15.90;24.80
1103;DHT22;538;42.654;23.376;2022-11-18T13:52:43;15.80;23.90
1103;DHT22;538;42.654;23.376;2022-11-18T13:55:15;16.00;22.80
1103;DHT22;538;42.654;23.376;2022-11-18T13:57:46;16.20;18.20
1103;DHT22;538;42.654;23.376;2022-11-18T14:00:25;16.40;17.50
1103;DHT22;538;42.654;23.376;2022-11-18T14:02:57;16.40;17.50
1103;DHT22;538;42.654;23.376;2022-11-18T14:05:25;16.80;17.80
1103;DHT22;538;42.654;23.376;2022-11-18T14:07:58;16.80;17.60
1103;DHT22;538;42.654;23.376;2022-11-18T14:10:30;16.90;17.90
1103;DHT22;538;42.654;23.376;2022-11-18T14:12:59;17.00;16.50
1103;DHT22;538;42.654;23.376;2022-11-18T14:15:34;17.20;16.90
1103;DHT22;538;42.654;23.376;2022-11-18T14:18:13;17.10;15.70
1103;DHT22;538;42.654;23.376;2022-11-18T14:20:49;17.40;15.80
1103;DHT22;538;42.654;23.376;2022-11-18T14:23:17;17.30;14.90
1103;DHT22;538;42.654;23.376;2022-11-18T14:25:46;17.50;14.20
1103;DHT22;538;42.654;23.376;2022-11-18T14:28:20;17.40;14.50
1103;DHT22;538;42.654;23.376;2022-11-18T14:31:00;17.60;14.40
1103;DHT22;538;42.654;23.376;2022-11-18T14:33:30;17.50;14.40
1103;DHT22;538;42.654;23.376;2022-11-18T14:35:59;17.50;14.40
1103;DHT22;538;42.654;23.376;2022-11-18T14:38:35;17.70;14.70
1103;DHT22;538;42.654;23.376;2022-11-18T14:41:06;17.60;14.90
1103;DHT22;538;42.654;23.376;2022-11-18T14:43:33;17.70;13.90
1103;DHT22;538;42.654;23.376;2022-11-18T14:46:03;17.60;14.50
1103;DHT22;538;42.654;23.376;2022-11-18T14:48:32;17.50;14.60
1103;DHT22;538;42.654;23.376;2022-11-18T14:50:59;17.60;14.50
1103;DHT22;538;42.654;23.376;2022-11-18T14:53:26;17.50;14.60
1103;DHT22;538;42.654;23.376;2022-11-18T14:55:56;17.50;14.70
1103;DHT22;538;42.654;23.376;2022-11-18T14:58:24;17.50;14.60
1103;DHT22;538;42.654;23.376;2022-11-18T15:00:52;17.60;14.20
1103;DHT22;538;42.654;23.376;2022-11-18T15:03:19;17.50;14.40
1103;DHT22;538;42.654;23.376;2022-11-18T15:05:48;17.50;15.20
1103;DHT22;538;42.654;23.376;2022-11-18T15:08:15;17.70;15.00
1103;DHT22;538;42.654;23.376;2022-11-18T15:10:42;17.50;15.20
1103;DHT22;538;42.654;23.376;2022-11-18T15:15:37;17.20;17.90
1103;DHT22;538;42.654;23.376;2022-11-18T15:18:04;16.70;19.10
1103;DHT22;538;42.654;23.376;2022-11-18T15:20:32;16.10;21.10
1103;DHT22;538;42.654;23.376;2022-11-18T15:23:01;16.20;23.60
1103;DHT22;538;42.654;23.376;2022-11-18T15:25:28;16.00;25.50
1103;DHT22;538;42.654;23.376;2022-11-18T15:27:55;15.60;27.00
1103;DHT22;538;42.654;23.376;2022-11-18T15:30:22;15.40;28.70
1103;DHT22;538;42.654;23.376;2022-11-18T15:32:49;15.40;30.10
1103;DHT22;538;42.654;23.376;2022-11-18T15:35:17;15.30;31.40
1103;DHT22;538;42.654;23.376;2022-11-18T15:37:44;15.30;30.20
1103;DHT22;538;42.654;23.376;2022-11-18T15:40:13;15.20;27.40
1103;DHT22;538;42.654;23.376;2022-11-18T15:42:40;15.30;27.20
1103;DHT22;538;42.654;23.376;2022-11-18T15:45:08;15.40;27.00
1103;DHT22;538;42.654;23.376;2022-11-18T15:47:35;15.60;26.90
1103;DHT22;538;42.654;23.376;2022-11-18T15:50:03;15.80;27.40
1103;DHT22;538;42.654;23.376;2022-11-18T15:52:31;15.80;27.60
1103;DHT22;538;42.654;23.376;2022-11-18T15:54:58;16.00;26.60
1103;DHT22;538;42.654;23.376;2022-11-18T15:57:26;15.90;24.80
1103;DHT22;538;42.654;23.376;2022-11-18T15:59:54;15.70;22.40
1103;DHT22;538;42.654;23.376;2022-11-18T16:02:21;16.10;21.70
1103;DHT22;538;42.654;23.376;2022-11-18T16:09:43;16.30;23.00
1103;DHT22;538;42.654;23.376;2022-11-18T16:12:35;16.10;23.00
1103;DHT22;538;42.654;23.376;2022-11-18T16:15:15;16.20;23.40
1103;DHT22;538;42.654;23.376;2022-11-18T16:18:01;16.10;23.60
1103;DHT22;538;42.654;23.376;2022-11-18T16:20:29;16.10;22.90
1103;DHT22;538;42.654;23.376;2022-11-18T16:25:26;15.90;23.70
1103;DHT22;538;42.654;23.376;2022-11-18T16:27:55;15.90;24.20
1103;DHT22;538;42.654;23.376;2022-11-18T16:33:08;15.70;27.40
1103;DHT22;538;42.654;23.376;2022-11-18T16:35:37;15.50;28.30
1103;DHT22;538;42.654;23.376;2022-11-18T16:38:11;15.10;29.80
1103;DHT22;538;42.654;23.376;2022-11-18T16:40:38;15.00;35.40
1103;DHT22;538;42.654;23.376;2022-11-18T16:43:07;14.90;35.50
1103;DHT22;538;42.654;23.376;2022-11-18T16:50:29;14.80;39.00
1103;DHT22;538;42.654;23.376;2022-11-18T16:52:57;14.50;36.30
1103;DHT22;538;42.654;23.376;2022-11-18T16:55:26;14.60;36.80
1103;DHT22;538;42.654;23.376;2022-11-18T16:58:33;14.70;37.40
1103;DHT22;538;42.654;23.376;2022-11-18T17:01:09;14.50;36.40
1103;DHT22;538;42.654;23.376;2022-11-18T17:11:12;15.00;33.20
1103;DHT22;538;42.654;23.376;2022-11-18T17:13:52;14.90;32.10
1103;DHT22;538;42.654;23.376;2022-11-18T17:16:55;14.90;31.90
1103;DHT22;538;42.654;23.376;2022-11-18T17:22:02;15.00;32.70
1103;DHT22;538;42.654;23.376;2022-11-18T17:24:41;14.90;35.00
1103;DHT22;538;42.654;23.376;2022-11-18T17:27:29;15.10;33.50
1103;DHT22;538;42.654;23.376;2022-11-18T17:30:02;15.00;35.00
1103;DHT22;538;42.654;23.376;2022-11-18T17:35:56;14.90;33.30
1103;DHT22;538;42.654;23.376;2022-11-18T17:39:54;15.10;32.70
1103;DHT22;538;42.654;23.376;2022-11-18T17:41:50;14.90;33.40
1103;DHT22;538;42.654;23.376;2022-11-18T17:47:10;14.90;31.80
1103;DHT22;538;42.654;23.376;2022-11-18T17:49:51;15.00;31.50
1103;DHT22;538;42.654;23.376;2022-11-18T17:52:50;15.10;32.50
1103;DHT22;538;42.654;23.376;2022-11-18T17:58:15;14.80;34.30
1103;DHT22;538;42.654;23.376;2022-11-18T18:01:07;14.70;33.80
1103;DHT22;538;42.654;23.376;2022-11-18T18:04:07;14.90;33.80
1103;DHT22;538;42.654;23.376;2022-11-18T18:06:54;14.90;34.00
1103;DHT22;538;42.654;23.376;2022-11-18T18:09:34;14.80;32.80
1103;DHT22;538;42.654;23.376;2022-11-18T18:12:10;15.00;32.00
1103;DHT22;538;42.654;23.376;2022-11-18T18:15:17;14.90;31.60
1103;DHT22;538;42.654;23.376;2022-11-18T18:17:55;15.00;33.00
1103;DHT22;538;42.654;23.376;2022-11-18T18:20:42;15.00;33.30
1103;DHT22;538;42.654;23.376;2022-11-18T18:29:41;15.10;31.20
1103;DHT22;538;42.654;23.376;2022-11-18T18:32:52;15.20;32.40
1103;DHT22;538;42.654;23.376;2022-11-18T18:35:39;15.40;29.40
1103;DHT22;538;42.654;23.376;2022-11-18T18:38:11;15.70;28.90
1103;DHT22;538;42.654;23.376;2022-11-18T18:40:45;15.60;28.60
1103;DHT22;538;42.654;23.376;2022-11-18T18:43:16;15.60;28.90
1103;DHT22;538;42.654;23.376;2022-11-18T18:51:19;15.70;28.90
1103;DHT22;538;42.654;23.376;2022-11-18T18:56:37;16.70;30.00
1103;DHT22;538;42.654;23.376;2022-11-18T19:02:11;15.90;27.90